Terminal Aerodrome Forecast
Issued by NWS

Home | Current Version | Previous Version | Text Only | Print | Product List | Glossary On
Versions: 1 2 3 4 5 6 7 8 9 10 11 12 13 14 15 16 17 18 19 20
000
FTUS43 KICT 011700
TAFRSL
TAF
KRSL 011740Z 0118/0218 04008KT P6SM BKN009
     FM011900 05008KT P6SM BKN015
     FM012000 06008KT P6SM SCT030
     FM020600 05006KT P6SM VCTS SCT015 BKN030CB
     FM021000 33015G21KT P6SM VCTS SCT015 BKN030CB=

USA.gov is the U.S. government's official web portal to all federal, state and local government web resources and services.